sensor_id;sensor_type;location;lat;lon;timestamp;temperature;humidity
78289;DHT22;67539;48.752;12.922;2024-03-23T00:54:10;10.70;99.90
78289;DHT22;67539;48.752;12.922;2024-03-23T00:56:37;10.60;99.90
78289;DHT22;67539;48.752;12.922;2024-03-23T00:59:03;10.50;99.90
78289;DHT22;67539;48.752;12.922;2024-03-23T01:01:30;10.40;99.90
78289;DHT22;67539;48.752;12.922;2024-03-23T01:03:57;10.40;99.90
78289;DHT22;67539;48.752;12.922;2024-03-23T01:06:25;10.40;99.90
78289;DHT22;67539;48.752;12.922;2024-03-23T01:08:51;10.30;99.90
78289;DHT22;67539;48.752;12.922;2024-03-23T01:11:20;10.20;99.90
78289;DHT22;67539;48.752;12.922;2024-03-23T01:13:46;10.10;99.90
78289;DHT22;67539;48.752;12.922;2024-03-23T01:16:13;10.10;99.90
78289;DHT22;67539;48.752;12.922;2024-03-23T01:18:39;10.00;99.90
78289;DHT22;67539;48.752;12.922;2024-03-23T01:21:06;10.00;99.90
78289;DHT22;67539;48.752;12.922;2024-03-23T01:23:32;9.90;99.90
78289;DHT22;67539;48.752;12.922;2024-03-23T01:26:00;9.80;99.90
78289;DHT22;67539;48.752;12.922;2024-03-23T01:28:27;9.80;99.90
78289;DHT22;67539;48.752;12.922;2024-03-23T01:30:54;9.70;99.90
78289;DHT22;67539;48.752;12.922;2024-03-23T01:33:20;9.70;99.90
78289;DHT22;67539;48.752;12.922;2024-03-23T01:35:48;9.60;99.90
78289;DHT22;67539;48.752;12.922;2024-03-23T01:38:14;9.60;99.90
78289;DHT22;67539;48.752;12.922;2024-03-23T01:40:41;9.50;99.90
78289;DHT22;67539;48.752;12.922;2024-03-23T01:43:08;9.40;99.90
78289;DHT22;67539;48.752;12.922;2024-03-23T01:45:36;9.40;99.90
78289;DHT22;67539;48.752;12.922;2024-03-23T01:48:03;9.30;99.90
78289;DHT22;67539;48.752;12.922;2024-03-23T01:50:31;9.20;99.90
78289;DHT22;67539;48.752;12.922;2024-03-23T01:53:00;9.20;99.90
78289;DHT22;67539;48.752;12.922;2024-03-23T01:55:30;9.10;99.90
78289;DHT22;67539;48.752;12.922;2024-03-23T01:57:57;9.00;99.90
78289;DHT22;67539;48.752;12.922;2024-03-23T02:00:24;9.00;99.90
78289;DHT22;67539;48.752;12.922;2024-03-23T02:02:52;8.90;99.90
78289;DHT22;67539;48.752;12.922;2024-03-23T02:05:19;8.80;99.90
78289;DHT22;67539;48.752;12.922;2024-03-23T02:07:45;8.80;99.90
78289;DHT22;67539;48.752;12.922;2024-03-23T02:10:13;8.70;99.90
78289;DHT22;67539;48.752;12.922;2024-03-23T02:12:39;8.70;99.90
78289;DHT22;67539;48.752;12.922;2024-03-23T02:15:07;8.60;99.90
78289;DHT22;67539;48.752;12.922;2024-03-23T02:17:35;8.60;99.90
78289;DHT22;67539;48.752;12.922;2024-03-23T02:20:04;8.50;99.90
78289;DHT22;67539;48.752;12.922;2024-03-23T02:22:36;8.50;99.90
78289;DHT22;67539;48.752;12.922;2024-03-23T02:25:06;8.40;99.90
78289;DHT22;67539;48.752;12.922;2024-03-23T02:27:32;8.40;99.90
78289;DHT22;67539;48.752;12.922;2024-03-23T02:30:00;8.30;99.90
78289;DHT22;67539;48.752;12.922;2024-03-23T02:32:26;8.30;99.90
78289;DHT22;67539;48.752;12.922;2024-03-23T02:34:54;8.20;99.90
78289;DHT22;67539;48.752;12.922;2024-03-23T02:37:20;8.20;99.90
78289;DHT22;67539;48.752;12.922;2024-03-23T02:39:47;8.10;99.90
78289;DHT22;67539;48.752;12.922;2024-03-23T02:42:14;8.10;99.90
78289;DHT22;67539;48.752;12.922;2024-03-23T02:44:44;8.00;99.90
78289;DHT22;67539;48.752;12.922;2024-03-23T02:47:10;8.00;99.90
78289;DHT22;67539;48.752;12.922;2024-03-23T02:49:37;8.00;99.90
78289;DHT22;67539;48.752;12.922;2024-03-23T02:52:03;7.90;99.90
78289;DHT22;67539;48.752;12.922;2024-03-23T02:54:31;7.80;99.90
78289;DHT22;67539;48.752;12.922;2024-03-23T02:56:57;7.80;99.90
78289;DHT22;67539;48.752;12.922;2024-03-23T02:59:25;7.80;99.90
78289;DHT22;67539;48.752;12.922;2024-03-23T03:01:52;7.70;99.90
78289;DHT22;67539;48.752;12.922;2024-03-23T03:04:19;7.70;99.90
78289;DHT22;67539;48.752;12.922;2024-03-23T03:06:47;7.70;99.90
78289;DHT22;67539;48.752;12.922;2024-03-23T03:09:14;7.60;99.90
78289;DHT22;67539;48.752;12.922;2024-03-23T03:11:41;7.60;99.90
78289;DHT22;67539;48.752;12.922;2024-03-23T03:14:08;7.60;99.90
78289;DHT22;67539;48.752;12.922;2024-03-23T03:16:36;7.60;99.90
78289;DHT22;67539;48.752;12.922;2024-03-23T03:19:03;7.60;99.90
78289;DHT22;67539;48.752;12.922;2024-03-23T03:21:29;7.60;99.90
78289;DHT22;67539;48.752;12.922;2024-03-23T03:23:56;7.60;99.90
78289;DHT22;67539;48.752;12.922;2024-03-23T03:26:22;7.60;99.90
78289;DHT22;67539;48.752;12.922;2024-03-23T03:28:50;7.50;99.90
78289;DHT22;67539;48.752;12.922;2024-03-23T03:31:17;7.50;99.90
78289;DHT22;67539;48.752;12.922;2024-03-23T03:33:46;7.50;99.90
78289;DHT22;67539;48.752;12.922;2024-03-23T03:36:12;7.50;99.90
78289;DHT22;67539;48.752;12.922;2024-03-23T03:38:39;7.50;99.90
78289;DHT22;67539;48.752;12.922;2024-03-23T03:41:06;7.40;99.90
78289;DHT22;67539;48.752;12.922;2024-03-23T03:43:33;7.40;99.90
78289;DHT22;67539;48.752;12.922;2024-03-23T03:46:00;7.40;99.90
78289;DHT22;67539;48.752;12.922;2024-03-23T03:48:27;7.30;99.90
78289;DHT22;67539;48.752;12.922;2024-03-23T03:50:55;7.30;99.90
78289;DHT22;67539;48.752;12.922;2024-03-23T03:53:22;7.20;99.90
78289;DHT22;67539;48.752;12.922;2024-03-23T03:55:49;7.30;99.90
78289;DHT22;67539;48.752;12.922;2024-03-23T03:58:16;7.30;99.90
78289;DHT22;67539;48.752;12.922;2024-03-23T04:00:42;7.20;99.90
78289;DHT22;67539;48.752;12.922;2024-03-23T04:03:09;7.20;99.90
78289;DHT22;67539;48.752;12.922;2024-03-23T04:05:35;7.20;99.90
78289;DHT22;67539;48.752;12.922;2024-03-23T04:08:04;7.10;99.90
78289;DHT22;67539;48.752;12.922;2024-03-23T04:10:30;7.10;99.90
78289;DHT22;67539;48.752;12.922;2024-03-23T04:12:57;7.00;99.90
78289;DHT22;67539;48.752;12.922;2024-03-23T04:15:24;7.00;99.90
78289;DHT22;67539;48.752;12.922;2024-03-23T04:17:51;7.00;99.90
78289;DHT22;67539;48.752;12.922;2024-03-23T04:20:17;6.90;99.90
78289;DHT22;67539;48.752;12.922;2024-03-23T04:22:44;6.90;99.90
78289;DHT22;67539;48.752;12.922;2024-03-23T04:25:13;6.90;99.90
78289;DHT22;67539;48.752;12.922;2024-03-23T04:27:40;6.80;99.90
78289;DHT22;67539;48.752;12.922;2024-03-23T04:30:07;6.80;99.90
78289;DHT22;67539;48.752;12.922;2024-03-23T04:32:36;6.80;99.90
78289;DHT22;67539;48.752;12.922;2024-03-23T04:35:03;6.80;99.90
78289;DHT22;67539;48.752;12.922;2024-03-23T04:37:32;6.80;99.90
78289;DHT22;67539;48.752;12.922;2024-03-23T04:40:00;6.80;99.90
78289;DHT22;67539;48.752;12.922;2024-03-23T04:42:31;6.70;99.90
78289;DHT22;67539;48.752;12.922;2024-03-23T04:44:58;6.70;99.90
78289;DHT22;67539;48.752;12.922;2024-03-23T04:47:25;6.70;99.90
78289;DHT22;67539;48.752;12.922;2024-03-23T04:49:53;6.70;99.90
78289;DHT22;67539;48.752;12.922;2024-03-23T04:52:20;6.80;99.90
78289;DHT22;67539;48.752;12.922;2024-03-23T04:54:47;6.80;99.90
78289;DHT22;67539;48.752;12.922;2024-03-23T04:57:14;6.80;99.90
78289;DHT22;67539;48.752;12.922;2024-03-23T04:59:47;6.80;99.90
78289;DHT22;67539;48.752;12.922;2024-03-23T05:02:13;6.80;99.90
78289;DHT22;67539;48.752;12.922;2024-03-23T05:04:41;6.70;99.90
78289;DHT22;67539;48.752;12.922;2024-03-23T05:07:07;6.70;99.90
78289;DHT22;67539;48.752;12.922;2024-03-23T05:09:34;6.70;99.90
78289;DHT22;67539;48.752;12.922;2024-03-23T05:12:00;6.70;99.90
78289;DHT22;67539;48.752;12.922;2024-03-23T05:14:28;6.70;99.90
78289;DHT22;67539;48.752;12.922;2024-03-23T05:16:56;6.70;99.90
78289;DHT22;67539;48.752;12.922;2024-03-23T05:19:23;6.70;99.90
78289;DHT22;67539;48.752;12.922;2024-03-23T05:21:49;6.70;99.90
78289;DHT22;67539;48.752;12.922;2024-03-23T05:24:16;6.70;99.90
78289;DHT22;67539;48.752;12.922;2024-03-23T05:26:42;6.70;99.90
78289;DHT22;67539;48.752;12.922;2024-03-23T05:29:10;6.80;99.90
78289;DHT22;67539;48.752;12.922;2024-03-23T05:31:39;6.80;99.90
78289;DHT22;67539;48.752;12.922;2024-03-23T05:34:08;6.90;99.90
78289;DHT22;67539;48.752;12.922;2024-03-23T05:36:35;6.90;99.90
78289;DHT22;67539;48.752;12.922;2024-03-23T05:39:03;7.00;99.90
78289;DHT22;67539;48.752;12.922;2024-03-23T05:41:29;7.10;99.90
78289;DHT22;67539;48.752;12.922;2024-03-23T05:43:56;7.20;99.90
78289;DHT22;67539;48.752;12.922;2024-03-23T05:46:23;7.30;99.90
78289;DHT22;67539;48.752;12.922;2024-03-23T05:48:50;7.40;99.90
78289;DHT22;67539;48.752;12.922;2024-03-23T05:51:27;7.50;99.90
78289;DHT22;67539;48.752;12.922;2024-03-23T05:53:54;7.50;99.90
78289;DHT22;67539;48.752;12.922;2024-03-23T05:56:20;7.60;99.90
78289;DHT22;67539;48.752;12.922;2024-03-23T05:58:47;7.70;99.90
78289;DHT22;67539;48.752;12.922;2024-03-23T06:01:15;7.70;99.90
78289;DHT22;67539;48.752;12.922;2024-03-23T06:03:41;7.70;99.90
78289;DHT22;67539;48.752;12.922;2024-03-23T06:06:09;7.80;99.90
78289;DHT22;67539;48.752;12.922;2024-03-23T06:08:39;7.90;99.90
78289;DHT22;67539;48.752;12.922;2024-03-23T06:11:06;7.90;99.90
78289;DHT22;67539;48.752;12.922;2024-03-23T06:13:32;8.00;99.90
78289;DHT22;67539;48.752;12.922;2024-03-23T06:16:01;8.00;99.90
78289;DHT22;67539;48.752;12.922;2024-03-23T06:18:27;8.10;99.90
78289;DHT22;67539;48.752;12.922;2024-03-23T06:20:54;8.10;99.90
78289;DHT22;67539;48.752;12.922;2024-03-23T06:23:20;8.20;99.90
78289;DHT22;67539;48.752;12.922;2024-03-23T06:25:49;8.20;99.90
78289;DHT22;67539;48.752;12.922;2024-03-23T06:28:15;8.30;99.90
78289;DHT22;67539;48.752;12.922;2024-03-23T06:30:44;8.40;99.90
78289;DHT22;67539;48.752;12.922;2024-03-23T06:33:10;8.40;99.90
78289;DHT22;67539;48.752;12.922;2024-03-23T06:35:37;8.50;99.90
78289;DHT22;67539;48.752;12.922;2024-03-23T06:38:03;8.60;99.90
78289;DHT22;67539;48.752;12.922;2024-03-23T06:40:31;8.70;99.90
78289;DHT22;67539;48.752;12.922;2024-03-23T06:42:58;8.70;99.90
78289;DHT22;67539;48.752;12.922;2024-03-23T06:45:25;8.80;99.90
78289;DHT22;67539;48.752;12.922;2024-03-23T06:47:52;8.90;99.90
78289;DHT22;67539;48.752;12.922;2024-03-23T06:50:21;8.90;99.90
78289;DHT22;67539;48.752;12.922;2024-03-23T06:52:49;8.90;99.90
78289;DHT22;67539;48.752;12.922;2024-03-23T06:55:16;9.00;99.90
78289;DHT22;67539;48.752;12.922;2024-03-23T06:57:42;9.00;99.90
78289;DHT22;67539;48.752;12.922;2024-03-23T07:00:13;9.00;99.90
78289;DHT22;67539;48.752;12.922;2024-03-23T07:02:41;9.00;99.90
78289;DHT22;67539;48.752;12.922;2024-03-23T07:05:10;9.10;99.90
78289;DHT22;67539;48.752;12.922;2024-03-23T07:07:37;9.10;99.90
78289;DHT22;67539;48.752;12.922;2024-03-23T07:10:06;9.20;99.90
78289;DHT22;67539;48.752;12.922;2024-03-23T07:12:32;9.30;99.90
78289;DHT22;67539;48.752;12.922;2024-03-23T07:14:59;9.40;99.90
78289;DHT22;67539;48.752;12.922;2024-03-23T07:17:27;9.40;99.90
78289;DHT22;67539;48.752;12.922;2024-03-23T07:19:54;9.60;99.90
78289;DHT22;67539;48.752;12.922;2024-03-23T07:22:20;9.60;99.90
78289;DHT22;67539;48.752;12.922;2024-03-23T07:24:47;9.70;99.90
78289;DHT22;67539;48.752;12.922;2024-03-23T07:27:13;9.80;99.90
78289;DHT22;67539;48.752;12.922;2024-03-23T07:29:41;10.00;99.90
78289;DHT22;67539;48.752;12.922;2024-03-23T07:32:07;10.00;99.90
78289;DHT22;67539;48.752;12.922;2024-03-23T07:34:35;10.20;99.90
78289;DHT22;67539;48.752;12.922;2024-03-23T07:37:02;10.30;99.90
78289;DHT22;67539;48.752;12.922;2024-03-23T07:39:30;10.40;99.90
78289;DHT22;67539;48.752;12.922;2024-03-23T07:41:58;10.50;99.90
78289;DHT22;67539;48.752;12.922;2024-03-23T07:44:26;10.70;99.90
78289;DHT22;67539;48.752;12.922;2024-03-23T07:46:52;10.80;99.90
78289;DHT22;67539;48.752;12.922;2024-03-23T07:49:19;11.00;99.90
78289;DHT22;67539;48.752;12.922;2024-03-23T07:51:47;11.20;99.90
78289;DHT22;67539;48.752;12.922;2024-03-23T07:54:14;11.40;99.90
78289;DHT22;67539;48.752;12.922;2024-03-23T07:56:40;11.70;99.90
78289;DHT22;67539;48.752;12.922;2024-03-23T07:59:07;12.00;99.90
78289;DHT22;67539;48.752;12.922;2024-03-23T08:01:33;12.30;99.90
78289;DHT22;67539;48.752;12.922;2024-03-23T08:04:00;12.50;99.90
78289;DHT22;67539;48.752;12.922;2024-03-23T08:06:27;12.70;99.90
78289;DHT22;67539;48.752;12.922;2024-03-23T08:08:56;12.90;99.90
78289;DHT22;67539;48.752;12.922;2024-03-23T08:11:25;13.10;99.90
78289;DHT22;67539;48.752;12.922;2024-03-23T08:13:53;13.10;99.90
78289;DHT22;67539;48.752;12.922;2024-03-23T08:16:19;13.20;99.90
78289;DHT22;67539;48.752;12.922;2024-03-23T08:18:47;13.20;99.90
78289;DHT22;67539;48.752;12.922;2024-03-23T08:21:13;13.20;99.90
78289;DHT22;67539;48.752;12.922;2024-03-23T08:23:41;13.10;99.90
78289;DHT22;67539;48.752;12.922;2024-03-23T08:26:09;13.10;99.90
78289;DHT22;67539;48.752;12.922;2024-03-23T08:28:36;13.10;99.90
78289;DHT22;67539;48.752;12.922;2024-03-23T08:31:06;13.10;99.90
78289;DHT22;67539;48.752;12.922;2024-03-23T08:33:34;13.00;99.90
78289;DHT22;67539;48.752;12.922;2024-03-23T08:36:01;13.00;99.90
78289;DHT22;67539;48.752;12.922;2024-03-23T08:38:29;13.00;99.90
78289;DHT22;67539;48.752;12.922;2024-03-23T08:40:59;12.90;99.90
78289;DHT22;67539;48.752;12.922;2024-03-23T08:43:27;13.00;99.90
78289;DHT22;67539;48.752;12.922;2024-03-23T08:45:54;12.90;99.90
78289;DHT22;67539;48.752;12.922;2024-03-23T08:48:21;12.80;99.90
78289;DHT22;67539;48.752;12.922;2024-03-23T08:50:47;12.70;99.90
78289;DHT22;67539;48.752;12.922;2024-03-23T08:53:24;12.50;99.90
78289;DHT22;67539;48.752;12.922;2024-03-23T08:55:53;11.70;99.90
78289;DHT22;67539;48.752;12.922;2024-03-23T08:58:20;11.30;99.90
78289;DHT22;67539;48.752;12.922;2024-03-23T09:00:48;11.00;99.90
78289;DHT22;67539;48.752;12.922;2024-03-23T09:03:15;10.70;99.90
78289;DHT22;67539;48.752;12.922;2024-03-23T09:05:41;10.60;99.90
78289;DHT22;67539;48.752;12.922;2024-03-23T09:08:08;10.50;99.90
78289;DHT22;67539;48.752;12.922;2024-03-23T09:10:38;10.40;99.90
78289;DHT22;67539;48.752;12.922;2024-03-23T09:13:06;10.30;99.90
78289;DHT22;67539;48.752;12.922;2024-03-23T09:15:33;10.30;99.90
78289;DHT22;67539;48.752;12.922;2024-03-23T09:18:01;10.20;99.90
78289;DHT22;67539;48.752;12.922;2024-03-23T09:20:28;9.90;99.90
78289;DHT22;67539;48.752;12.922;2024-03-23T09:22:55;9.90;99.90
78289;DHT22;67539;48.752;12.922;2024-03-23T09:25:21;9.90;99.90
78289;DHT22;67539;48.752;12.922;2024-03-23T09:27:48;9.80;99.90
78289;DHT22;67539;48.752;12.922;2024-03-23T09:30:15;9.70;99.90
78289;DHT22;67539;48.752;12.922;2024-03-23T09:32:43;9.60;99.90
78289;DHT22;67539;48.752;12.922;2024-03-23T09:35:12;9.70;99.90
78289;DHT22;67539;48.752;12.922;2024-03-23T09:37:38;9.60;99.90
78289;DHT22;67539;48.752;12.922;2024-03-23T09:40:09;9.60;99.90
78289;DHT22;67539;48.752;12.922;2024-03-23T09:42:37;9.60;99.90
78289;DHT22;67539;48.752;12.922;2024-03-23T09:45:06;9.70;99.90
78289;DHT22;67539;48.752;12.922;2024-03-23T09:47:32;9.70;99.90
78289;DHT22;67539;48.752;12.922;2024-03-23T09:50:00;9.70;99.90
78289;DHT22;67539;48.752;12.922;2024-03-23T09:52:28;9.80;99.90
78289;DHT22;67539;48.752;12.922;2024-03-23T09:54:55;9.80;99.90
78289;DHT22;67539;48.752;12.922;2024-03-23T09:57:21;9.90;99.90
78289;DHT22;67539;48.752;12.922;2024-03-23T09:59:48;9.90;99.90
78289;DHT22;67539;48.752;12.922;2024-03-23T10:02:15;10.00;99.90
78289;DHT22;67539;48.752;12.922;2024-03-23T10:04:46;10.10;99.90
78289;DHT22;67539;48.752;12.922;2024-03-23T10:07:13;10.10;99.90
78289;DHT22;67539;48.752;12.922;2024-03-23T10:09:42;10.20;99.90
78289;DHT22;67539;48.752;12.922;2024-03-23T10:12:09;10.20;99.90
78289;DHT22;67539;48.752;12.922;2024-03-23T10:14:37;10.20;99.90
78289;DHT22;67539;48.752;12.922;2024-03-23T10:17:12;10.20;99.90
78289;DHT22;67539;48.752;12.922;2024-03-23T10:19:41;10.20;99.90
78289;DHT22;67539;48.752;12.922;2024-03-23T10:22:09;10.30;99.90
78289;DHT22;67539;48.752;12.922;2024-03-23T10:24:36;10.30;99.90
78289;DHT22;67539;48.752;12.922;2024-03-23T10:27:04;10.30;99.90
78289;DHT22;67539;48.752;12.922;2024-03-23T10:29:31;10.40;99.90
78289;DHT22;67539;48.752;12.922;2024-03-23T10:32:08;10.30;99.90
78289;DHT22;67539;48.752;12.922;2024-03-23T10:34:36;10.40;99.90
78289;DHT22;67539;48.752;12.922;2024-03-23T10:37:03;10.40;99.90
78289;DHT22;67539;48.752;12.922;2024-03-23T10:39:32;10.40;99.90
78289;DHT22;67539;48.752;12.922;2024-03-23T10:42:05;10.40;99.90
78289;DHT22;67539;48.752;12.922;2024-03-23T10:44:34;10.50;99.90
78289;DHT22;67539;48.752;12.922;2024-03-23T10:47:01;10.40;99.90
78289;DHT22;67539;48.752;12.922;2024-03-23T10:49:29;10.50;99.90
78289;DHT22;67539;48.752;12.922;2024-03-23T10:52:00;10.50;99.90
78289;DHT22;67539;48.752;12.922;2024-03-23T10:54:27;10.50;99.90
78289;DHT22;67539;48.752;12.922;2024-03-23T10:56:59;10.60;99.90
78289;DHT22;67539;48.752;12.922;2024-03-23T10:59:31;10.60;99.90
78289;DHT22;67539;48.752;12.922;2024-03-23T11:01:58;10.60;99.90
78289;DHT22;67539;48.752;12.922;2024-03-23T11:04:32;10.60;99.90
78289;DHT22;67539;48.752;12.922;2024-03-23T11:07:28;10.70;99.90
78289;DHT22;67539;48.752;12.922;2024-03-23T11:09:59;10.70;99.90
78289;DHT22;67539;48.752;12.922;2024-03-23T11:12:29;10.70;99.90
78289;DHT22;67539;48.752;12.922;2024-03-23T11:15:04;10.70;99.90
78289;DHT22;67539;48.752;12.922;2024-03-23T11:17:31;10.70;99.90
78289;DHT22;67539;48.752;12.922;2024-03-23T11:19:59;10.50;99.90
78289;DHT22;67539;48.752;12.922;2024-03-23T11:22:39;10.10;99.90
78289;DHT22;67539;48.752;12.922;2024-03-23T11:25:14;9.70;99.90
78289;DHT22;67539;48.752;12.922;2024-03-23T11:27:40;9.50;99.90
78289;DHT22;67539;48.752;12.922;2024-03-23T11:30:14;9.50;99.90
78289;DHT22;67539;48.752;12.922;2024-03-23T11:32:40;9.60;99.90
78289;DHT22;67539;48.752;12.922;2024-03-23T11:35:08;9.70;99.90
78289;DHT22;67539;48.752;12.922;2024-03-23T11:37:36;9.70;99.90
78289;DHT22;67539;48.752;12.922;2024-03-23T11:40:20;9.80;99.90
78289;DHT22;67539;48.752;12.922;2024-03-23T11:42:46;9.70;99.90
78289;DHT22;67539;48.752;12.922;2024-03-23T11:45:18;9.70;99.90
78289;DHT22;67539;48.752;12.922;2024-03-23T11:47:44;9.80;99.90
78289;DHT22;67539;48.752;12.922;2024-03-23T11:50:19;9.80;99.90
78289;DHT22;67539;48.752;12.922;2024-03-23T11:52:46;9.80;99.90
78289;DHT22;67539;48.752;12.922;2024-03-23T11:55:13;9.90;99.90
78289;DHT22;67539;48.752;12.922;2024-03-23T11:57:39;9.90;99.90
78289;DHT22;67539;48.752;12.922;2024-03-23T12:00:23;9.90;99.90
78289;DHT22;67539;48.752;12.922;2024-03-23T12:02:49;10.00;99.90
78289;DHT22;67539;48.752;12.922;2024-03-23T12:05:17;10.00;99.90
78289;DHT22;67539;48.752;12.922;2024-03-23T12:07:43;10.10;99.90
78289;DHT22;67539;48.752;12.922;2024-03-23T12:10:10;10.10;99.90
78289;DHT22;67539;48.752;12.922;2024-03-23T12:12:37;10.20;99.90
78289;DHT22;67539;48.752;12.922;2024-03-23T12:15:05;10.20;99.90
78289;DHT22;67539;48.752;12.922;2024-03-23T12:17:33;10.20;99.90
78289;DHT22;67539;48.752;12.922;2024-03-23T12:20:02;10.10;99.90
78289;DHT22;67539;48.752;12.922;2024-03-23T12:22:28;10.10;99.90
78289;DHT22;67539;48.752;12.922;2024-03-23T12:24:56;10.20;99.90
78289;DHT22;67539;48.752;12.922;2024-03-23T12:27:23;10.20;99.90
78289;DHT22;67539;48.752;12.922;2024-03-23T12:29:51;10.20;99.90
78289;DHT22;67539;48.752;12.922;2024-03-23T12:32:17;10.20;99.90
78289;DHT22;67539;48.752;12.922;2024-03-23T12:34:46;10.20;99.90
78289;DHT22;67539;48.752;12.922;2024-03-23T12:37:13;10.30;99.90
78289;DHT22;67539;48.752;12.922;2024-03-23T12:39:40;10.30;99.90
78289;DHT22;67539;48.752;12.922;2024-03-23T12:42:06;10.20;99.90
78289;DHT22;67539;48.752;12.922;2024-03-23T12:44:34;10.20;99.90
78289;DHT22;67539;48.752;12.922;2024-03-23T12:47:00;10.10;99.10
78289;DHT22;67539;48.752;12.922;2024-03-23T12:49:27;10.20;99.90
78289;DHT22;67539;48.752;12.922;2024-03-23T12:51:56;10.20;99.80
78289;DHT22;67539;48.752;12.922;2024-03-23T12:54:23;10.20;98.50
78289;DHT22;67539;48.752;12.922;2024-03-23T12:56:49;10.10;98.50
78289;DHT22;67539;48.752;12.922;2024-03-23T12:59:17;10.10;98.20
78289;DHT22;67539;48.752;12.922;2024-03-23T13:01:44;10.10;98.20
78289;DHT22;67539;48.752;12.922;2024-03-23T13:04:11;10.00;99.50
78289;DHT22;67539;48.752;12.922;2024-03-23T13:06:37;10.10;99.90
78289;DHT22;67539;48.752;12.922;2024-03-23T13:09:06;10.20;99.90
78289;DHT22;67539;48.752;12.922;2024-03-23T13:11:32;10.20;99.90
78289;DHT22;67539;48.752;12.922;2024-03-23T13:14:00;10.20;99.90
78289;DHT22;67539;48.752;12.922;2024-03-23T13:16:26;10.30;99.90
78289;DHT22;67539;48.752;12.922;2024-03-23T13:18:53;10.30;98.60
78289;DHT22;67539;48.752;12.922;2024-03-23T13:21:19;10.30;98.70
78289;DHT22;67539;48.752;12.922;2024-03-23T13:23:47;10.20;98.70
78289;DHT22;67539;48.752;12.922;2024-03-23T13:26:15;10.10;97.90
78289;DHT22;67539;48.752;12.922;2024-03-23T13:28:42;10.10;98.60
78289;DHT22;67539;48.752;12.922;2024-03-23T13:31:09;10.10;98.90
78289;DHT22;67539;48.752;12.922;2024-03-23T13:33:36;10.10;98.80
78289;DHT22;67539;48.752;12.922;2024-03-23T13:36:03;10.10;98.10
78289;DHT22;67539;48.752;12.922;2024-03-23T13:38:30;10.00;97.80
78289;DHT22;67539;48.752;12.922;2024-03-23T13:40:57;10.10;99.10
78289;DHT22;67539;48.752;12.922;2024-03-23T13:43:28;10.10;98.00
78289;DHT22;67539;48.752;12.922;2024-03-23T13:45:55;10.00;97.70
78289;DHT22;67539;48.752;12.922;2024-03-23T13:48:24;10.00;97.60
78289;DHT22;67539;48.752;12.922;2024-03-23T13:50:57;9.80;97.60
78289;DHT22;67539;48.752;12.922;2024-03-23T13:53:24;9.80;98.80
78289;DHT22;67539;48.752;12.922;2024-03-23T13:55:51;9.90;99.00
78289;DHT22;67539;48.752;12.922;2024-03-23T13:58:18;9.90;98.60
78289;DHT22;67539;48.752;12.922;2024-03-23T14:00:45;9.80;97.50
78289;DHT22;67539;48.752;12.922;2024-03-23T14:03:14;9.80;98.20
78289;DHT22;67539;48.752;12.922;2024-03-23T14:05:41;9.90;98.20
78289;DHT22;67539;48.752;12.922;2024-03-23T14:08:09;9.80;97.50
78289;DHT22;67539;48.752;12.922;2024-03-23T14:10:37;9.70;98.10
78289;DHT22;67539;48.752;12.922;2024-03-23T14:13:07;9.70;97.00
78289;DHT22;67539;48.752;12.922;2024-03-23T14:15:33;9.70;96.20
78289;DHT22;67539;48.752;12.922;2024-03-23T14:18:04;9.70;95.30
78289;DHT22;67539;48.752;12.922;2024-03-23T14:20:31;9.60;95.20
78289;DHT22;67539;48.752;12.922;2024-03-23T14:22:58;9.60;94.70
78289;DHT22;67539;48.752;12.922;2024-03-23T14:25:25;9.60;94.60
78289;DHT22;67539;48.752;12.922;2024-03-23T14:27:55;9.50;95.00
78289;DHT22;67539;48.752;12.922;2024-03-23T14:30:21;9.50;96.70
78289;DHT22;67539;48.752;12.922;2024-03-23T14:32:48;9.60;97.10
78289;DHT22;67539;48.752;12.922;2024-03-23T14:35:16;9.60;97.40
78289;DHT22;67539;48.752;12.922;2024-03-23T14:37:43;9.60;97.00
78289;DHT22;67539;48.752;12.922;2024-03-23T14:40:10;9.60;96.50
78289;DHT22;67539;48.752;12.922;2024-03-23T14:42:38;9.50;96.80
78289;DHT22;67539;48.752;12.922;2024-03-23T14:45:05;9.50;96.90
78289;DHT22;67539;48.752;12.922;2024-03-23T14:47:33;9.40;96.80
78289;DHT22;67539;48.752;12.922;2024-03-23T14:49:59;9.40;97.70
78289;DHT22;67539;48.752;12.922;2024-03-23T14:52:28;9.40;98.00
78289;DHT22;67539;48.752;12.922;2024-03-23T14:54:54;9.40;97.80
78289;DHT22;67539;48.752;12.922;2024-03-23T14:57:22;9.40;96.10
78289;DHT22;67539;48.752;12.922;2024-03-23T14:59:48;9.40;96.20
78289;DHT22;67539;48.752;12.922;2024-03-23T15:02:16;9.30;95.40
78289;DHT22;67539;48.752;12.922;2024-03-23T15:04:42;9.30;95.70
78289;DHT22;67539;48.752;12.922;2024-03-23T15:07:09;9.20;94.80
78289;DHT22;67539;48.752;12.922;2024-03-23T15:09:36;9.20;95.70
78289;DHT22;67539;48.752;12.922;2024-03-23T15:12:04;9.20;95.50
78289;DHT22;67539;48.752;12.922;2024-03-23T15:14:30;9.10;95.60
78289;DHT22;67539;48.752;12.922;2024-03-23T15:16:57;9.10;95.50
78289;DHT22;67539;48.752;12.922;2024-03-23T15:19:23;9.00;96.50
78289;DHT22;67539;48.752;12.922;2024-03-23T15:21:51;8.90;97.40
78289;DHT22;67539;48.752;12.922;2024-03-23T15:24:17;8.80;98.20
78289;DHT22;67539;48.752;12.922;2024-03-23T15:26:46;8.50;99.30
78289;DHT22;67539;48.752;12.922;2024-03-23T15:29:12;8.30;99.90
78289;DHT22;67539;48.752;12.922;2024-03-23T15:31:42;8.10;99.90
78289;DHT22;67539;48.752;12.922;2024-03-23T15:34:09;8.00;99.90
78289;DHT22;67539;48.752;12.922;2024-03-23T15:36:36;8.00;99.90
78289;DHT22;67539;48.752;12.922;2024-03-23T15:39:04;8.00;99.90
78289;DHT22;67539;48.752;12.922;2024-03-23T15:41:31;8.00;99.90
78289;DHT22;67539;48.752;12.922;2024-03-23T15:44:00;8.00;99.90
78289;DHT22;67539;48.752;12.922;2024-03-23T15:46:27;8.10;99.90
78289;DHT22;67539;48.752;12.922;2024-03-23T15:48:53;8.20;99.90
78289;DHT22;67539;48.752;12.922;2024-03-23T15:51:21;8.20;99.90
78289;DHT22;67539;48.752;12.922;2024-03-23T15:53:47;8.30;99.90
78289;DHT22;67539;48.752;12.922;2024-03-23T15:56:18;8.30;99.90
78289;DHT22;67539;48.752;12.922;2024-03-23T15:58:44;8.30;99.90
78289;DHT22;67539;48.752;12.922;2024-03-23T16:01:13;8.30;99.90
78289;DHT22;67539;48.752;12.922;2024-03-23T16:03:39;8.30;99.90
78289;DHT22;67539;48.752;12.922;2024-03-23T16:06:07;8.30;99.90
78289;DHT22;67539;48.752;12.922;2024-03-23T16:08:34;8.20;99.90
78289;DHT22;67539;48.752;12.922;2024-03-23T16:11:02;8.20;99.90
78289;DHT22;67539;48.752;12.922;2024-03-23T16:13:28;8.20;99.90
78289;DHT22;67539;48.752;12.922;2024-03-23T16:15:56;8.20;99.90
78289;DHT22;67539;48.752;12.922;2024-03-23T16:18:24;8.10;99.90
78289;DHT22;67539;48.752;12.922;2024-03-23T16:20:55;8.10;99.90